Time;durP1;ratioP1;P1;durP2;ratioP2;P2;SDS_P1;SDS_P2;PMS_P1;PMS_P2;Temp;Humidity;BMP_temperature;BMP_pressure;BME280_temperature;BME280_humidity;BME280_pressure;Samples;Min_cycle;Max_cycle;Signal;HPM_P1;HPM_P2
2022/06/02 00:02:49;;;;;;;9.53;6.10;;;11.90;66.20;;;;;;5052555;28;46564;-63
2022/06/02 00:05:19;;;;;;;10.13;6.20;;;11.90;66.20;;;;;;5051026;28;47357;-62
2022/06/02 00:08:02;;;;;;;18.47;5.83;;;11.80;66.20;;;;;;5049463;28;46432;-62
2022/06/02 00:10:49;;;;;;;14.57;5.47;;;11.80;66.50;;;;;;5051759;28;46412;-63
2022/06/02 00:13:14;;;;;;;7.07;5.07;;;11.80;66.80;;;;;;5047124;28;46508;-63
2022/06/02 00:15:52;;;;;;;7.00;5.40;;;11.70;66.70;;;;;;5052860;28;46419;-63
2022/06/02 00:18:40;;;;;;;13.93;5.53;;;11.70;66.80;;;;;;5045699;28;46331;-64
2022/06/02 00:21:30;;;;;;;9.17;4.90;;;11.70;66.70;;;;;;5052501;28;46259;-62
2022/06/02 00:24:12;;;;;;;8.40;5.20;;;11.70;66.80;;;;;;5051332;28;46468;-62
2022/06/02 00:27:00;;;;;;;7.13;4.60;;;11.60;66.70;;;;;;5050012;28;46891;-62
2022/06/02 00:29:43;;;;;;;9.10;6.10;;;11.60;66.70;;;;;;5052808;28;46390;-62
2022/06/02 00:32:17;;;;;;;8.70;4.97;;;11.60;66.60;;;;;;5050819;28;46447;-65
2022/06/02 00:35:21;;;;;;;7.40;4.93;;;11.60;66.30;;;;;;5051203;28;46358;-62
2022/06/02 00:38:18;;;;;;;10.13;5.60;;;11.60;66.40;;;;;;5037409;28;46565;-61
2022/06/02 00:40:45;;;;;;;7.27;5.07;;;11.60;66.40;;;;;;5049451;28;46437;-62
2022/06/02 00:43:33;;;;;;;6.90;5.27;;;11.60;66.20;;;;;;5052746;28;46471;-62
2022/06/02 00:46:08;;;;;;;11.23;5.63;;;11.60;66.60;;;;;;5049337;28;46759;-63
2022/06/02 00:48:53;;;;;;;9.40;6.00;;;11.50;66.70;;;;;;5047985;28;46356;-61
2022/06/02 00:51:33;;;;;;;8.10;6.17;;;11.50;67.00;;;;;;5050806;28;46447;-63
2022/06/02 00:57:42;;;;;;;8.90;6.03;;;11.40;67.30;;;;;;5059691;28;46519;-63
2022/06/02 01:00:11;;;;;;;11.77;5.40;;;11.40;68.30;;;;;;5056887;28;47139;-62
2022/06/02 01:03:01;;;;;;;9.40;6.30;;;11.40;67.00;;;;;;5055689;28;46155;-62
2022/06/02 01:05:50;;;;;;;12.23;6.83;;;11.40;66.90;;;;;;5072055;28;46400;-63
2022/06/02 01:08:50;;;;;;;9.63;7.40;;;11.50;66.90;;;;;;5055686;28;46288;-63
2022/06/02 01:11:37;;;;;;;10.70;7.43;;;11.50;66.90;;;;;;5056372;28;47336;-62
2022/06/02 01:14:09;;;;;;;10.10;7.20;;;11.50;66.70;;;;;;5056960;28;46244;-62
2022/06/02 01:16:45;;;;;;;12.03;7.30;;;11.60;66.90;;;;;;5052223;28;46414;-63
2022/06/02 01:19:23;;;;;;;13.97;7.97;;;11.60;66.80;;;;;;5052759;28;46280;-63
2022/06/02 01:22:17;;;;;;;15.47;8.77;;;11.60;66.80;;;;;;5053224;28;47532;-62
2022/06/02 01:25:23;;;;;;;15.93;8.67;;;11.70;67.00;;;;;;5054495;28;46348;-63
2022/06/02 01:28:08;;;;;;;11.23;7.77;;;11.70;66.70;;;;;;5054309;28;46530;-62
2022/06/02 01:30:52;;;;;;;13.77;8.33;;;11.80;66.60;;;;;;5052405;28;46474;-62
2022/06/02 01:33:36;;;;;;;10.60;8.60;;;11.90;66.40;;;;;;5059758;28;46752;-63
2022/06/02 01:36:10;;;;;;;14.13;9.00;;;12.00;66.30;;;;;;5055525;28;46290;-62
2022/06/02 01:38:43;;;;;;;12.70;8.47;;;12.00;66.30;;;;;;5059949;28;46462;-62
2022/06/02 01:41:58;;;;;;;10.10;6.60;;;12.00;66.40;;;;;;5060231;28;45783;-62
2022/06/02 01:45:04;;;;;;;11.40;7.80;;;12.00;67.00;;;;;;5055768;28;47252;-63
2022/06/02 01:47:43;;;;;;;9.70;6.27;;;12.00;66.90;;;;;;5047611;28;46326;-62
2022/06/02 01:50:34;;;;;;;7.07;5.77;;;11.90;67.10;;;;;;5056078;28;46485;-63
2022/06/02 01:53:12;;;;;;;13.00;6.47;;;11.80;67.40;;;;;;5054382;28;46508;-63
2022/06/02 01:56:25;;;;;;;9.23;5.80;;;11.70;67.40;;;;;;5058841;28;46946;-63
2022/06/02 01:58:57;;;;;;;13.37;6.53;;;11.60;67.60;;;;;;5057505;28;46338;-63
2022/06/02 02:01:52;;;;;;;8.97;5.37;;;11.60;68.80;;;;;;5053239;28;46412;-64
2022/06/02 02:04:33;;;;;;;10.53;5.47;;;11.60;67.60;;;;;;5054387;28;46459;-64
2022/06/02 02:07:11;;;;;;;13.67;6.40;;;11.70;67.10;;;;;;5050182;28;47181;-63
2022/06/02 02:09:58;;;;;;;11.07;6.03;;;11.70;66.80;;;;;;5047233;28;47390;-62
2022/06/02 02:12:39;;;;;;;12.63;5.93;;;11.80;66.60;;;;;;5050865;28;46577;-64
2022/06/02 02:15:32;;;;;;;7.90;5.60;;;11.90;66.10;;;;;;5058879;28;46491;-63
2022/06/02 02:18:21;;;;;;;9.07;5.20;;;12.00;66.30;;;;;;5044510;28;47998;-62
2022/06/02 02:20:50;;;;;;;8.43;5.50;;;12.10;66.40;;;;;;5048062;28;46447;-64
2022/06/02 02:23:40;;;;;;;8.93;5.90;;;12.10;66.10;;;;;;5050311;28;46413;-62
2022/06/02 02:26:23;;;;;;;11.20;6.00;;;12.20;66.10;;;;;;5050689;28;45822;-62
2022/06/02 02:29:07;;;;;;;9.83;5.90;;;12.20;65.90;;;;;;5048741;28;46446;-63
2022/06/02 02:31:45;;;;;;;9.30;6.63;;;12.30;65.80;;;;;;5049749;28;46279;-62
2022/06/02 02:34:43;;;;;;;8.83;5.70;;;12.40;65.80;;;;;;5050623;28;46413;-62
2022/06/02 02:37:11;;;;;;;6.70;5.50;;;12.40;65.70;;;;;;5051525;28;46597;-63
2022/06/02 02:39:46;;;;;;;8.50;5.40;;;12.50;65.50;;;;;;5051919;28;46215;-62
2022/06/02 02:42:31;;;;;;;8.20;5.77;;;12.50;65.70;;;;;;5049398;28;46695;-61
2022/06/02 02:45:08;;;;;;;10.70;5.13;;;12.50;65.50;;;;;;5052207;28;46547;-62
2022/06/02 02:47:59;;;;;;;11.17;5.33;;;12.50;65.70;;;;;;5047226;28;46361;-61
2022/06/02 02:50:33;;;;;;;7.10;4.60;;;12.40;66.00;;;;;;5056101;28;46622;-63
2022/06/02 02:53:20;;;;;;;10.83;5.20;;;12.40;66.10;;;;;;5052280;28;46378;-61
2022/06/02 02:55:56;;;;;;;6.23;4.30;;;12.40;66.30;;;;;;5053571;28;46425;-63
2022/06/02 02:58:40;;;;;;;8.53;4.80;;;12.30;66.50;;;;;;5051531;28;46659;-62
2022/06/02 03:01:18;;;;;;;6.10;4.60;;;12.30;66.50;;;;;;5054063;28;47184;-62
2022/06/02 03:03:49;;;;;;;8.17;5.03;;;12.30;66.50;;;;;;5052667;28;46460;-63
2022/06/02 03:06:30;;;;;;;12.13;5.00;;;12.30;66.50;;;;;;5055677;28;46368;-61
2022/06/02 03:09:17;;;;;;;10.90;5.00;;;12.30;66.60;;;;;;5050412;28;46106;-62
2022/06/02 03:12:09;;;;;;;15.10;5.53;;;12.20;66.40;;;;;;5053560;28;46405;-62
2022/06/02 03:15:16;;;;;;;10.10;6.77;;;12.30;66.50;;;;;;5049714;28;46356;-62
2022/06/02 03:17:59;;;;;;;11.43;6.80;;;12.20;66.40;;;;;;5050461;28;46466;-62
2022/06/02 03:20:25;;;;;;;10.83;6.27;;;12.20;66.70;;;;;;5051470;28;46482;-62
2022/06/02 03:22:59;;;;;;;8.73;5.93;;;12.20;66.40;;;;;;5052109;28;46446;-62
2022/06/02 03:25:45;;;;;;;9.20;6.50;;;12.30;66.50;;;;;;5052130;28;46777;-62
2022/06/02 03:28:49;;;;;;;11.13;6.57;;;12.30;66.50;;;;;;5051130;28;46432;-61
2022/06/02 03:31:32;;;;;;;9.60;6.43;;;12.30;67.00;;;;;;5048257;28;46499;-63
2022/06/02 03:34:21;;;;;;;12.43;7.30;;;12.40;66.70;;;;;;5052678;28;47254;-62
2022/06/02 03:36:50;;;;;;;19.00;11.97;;;12.50;66.70;;;;;;5053010;28;46658;-62
2022/06/02 03:39:27;;;;;;;17.93;12.20;;;12.60;66.60;;;;;;5051964;28;46385;-62
2022/06/02 03:42:22;;;;;;;26.97;14.50;;;12.70;66.50;;;;;;5047993;28;46620;-62
2022/06/02 03:45:09;;;;;;;36.73;20.40;;;12.70;66.20;;;;;;5053418;28;46278;-62
2022/06/02 03:47:37;;;;;;;29.70;16.50;;;12.80;66.00;;;;;;5046897;28;46279;-63
2022/06/02 03:50:22;;;;;;;32.33;18.40;;;12.90;65.80;;;;;;5056610;28;46373;-62
2022/06/02 03:53:02;;;;;;;23.23;12.43;;;12.90;65.80;;;;;;5046922;28;46446;-62
2022/06/02 03:55:51;;;;;;;8.10;6.10;;;12.90;65.90;;;;;;5051869;28;46445;-64
2022/06/02 03:59:09;;;;;;;10.70;6.57;;;12.90;66.10;;;;;;5047355;28;46395;-63
2022/06/02 04:01:41;;;;;;;11.63;7.83;;;12.90;66.30;;;;;;5049782;28;46291;-61
2022/06/02 04:04:14;;;;;;;10.73;8.10;;;12.90;66.00;;;;;;5052760;28;46514;-61
2022/06/02 04:06:45;;;;;;;8.23;6.47;;;12.90;66.10;;;;;;5051750;28;46281;-62
2022/06/02 04:09:23;;;;;;;7.43;5.60;;;13.00;66.00;;;;;;5053072;28;46391;-62
2022/06/02 04:15:26;;;;;;;17.13;6.10;;;13.10;66.30;;;;;;5056598;28;46443;-62
2022/06/02 04:18:20;;;;;;;9.43;5.80;;;13.20;66.10;;;;;;5052757;28;47558;-62
2022/06/02 04:20:59;;;;;;;7.47;5.20;;;13.20;65.90;;;;;;5049865;28;46626;-62
2022/06/02 04:23:49;;;;;;;11.10;5.20;;;13.30;66.00;;;;;;5054705;28;46306;-61
2022/06/02 04:26:47;;;;;;;9.17;6.30;;;13.30;65.80;;;;;;5051265;28;46847;-62
2022/06/02 04:29:48;;;;;;;7.00;5.80;;;13.30;66.10;;;;;;5051795;28;46466;-61
2022/06/02 04:32:42;;;;;;;8.73;5.63;;;13.40;66.10;;;;;;5038647;28;46542;-62
2022/06/02 04:35:31;;;;;;;8.60;5.67;;;13.60;65.60;;;;;;5055775;28;46354;-61
2022/06/02 04:38:25;;;;;;;11.03;5.77;;;13.80;65.00;;;;;;5052399;28;46578;-61
2022/06/02 04:41:23;;;;;;;11.90;7.10;;;13.90;64.70;;;;;;5055109;28;46644;-62
2022/06/02 04:44:13;;;;;;;12.80;7.00;;;14.00;64.80;;;;;;5050010;28;46307;-61
2022/06/02 04:46:41;;;;;;;15.80;6.90;;;14.00;64.70;;;;;;5053239;28;46504;-61
2022/06/02 04:49:21;;;;;;;7.87;6.67;;;14.20;64.40;;;;;;5050479;28;46593;-63
2022/06/02 04:52:22;;;;;;;10.23;6.20;;;14.40;64.00;;;;;;5050294;28;46381;-62
2022/06/02 04:55:11;;;;;;;9.03;6.00;;;14.60;63.60;;;;;;5052719;28;45822;-62
2022/06/02 04:57:46;;;;;;;11.17;5.13;;;15.30;63.30;;;;;;5050912;28;46464;-62
2022/06/02 05:00:44;;;;;;;8.33;4.50;;;16.30;62.10;;;;;;5051790;28;46328;-62
2022/06/02 05:03:27;;;;;;;7.47;5.27;;;16.60;60.70;;;;;;5050011;28;47173;-63
2022/06/02 05:06:02;;;;;;;11.20;5.00;;;16.50;61.70;;;;;;5051768;28;46363;-64
2022/06/02 05:08:55;;;;;;;10.70;4.77;;;16.40;60.70;;;;;;5048674;28;46446;-62
2022/06/02 05:11:49;;;;;;;7.80;5.67;;;16.10;61.20;;;;;;5049632;28;46527;-62
2022/06/02 05:14:34;;;;;;;6.97;5.40;;;15.80;62.50;;;;;;5049908;28;46428;-62
2022/06/02 05:17:18;;;;;;;7.87;5.93;;;15.70;62.90;;;;;;5045144;28;46409;-63
2022/06/02 05:20:18;;;;;;;10.00;6.57;;;15.60;62.60;;;;;;5048665;28;46447;-62
2022/06/02 05:22:51;;;;;;;10.77;6.67;;;15.60;63.10;;;;;;5044294;28;45982;-61
2022/06/02 05:25:37;;;;;;;8.97;6.13;;;15.70;63.00;;;;;;5054869;28;46456;-61
2022/06/02 05:28:13;;;;;;;10.70;6.20;;;15.50;62.40;;;;;;5048477;28;45790;-62
2022/06/02 05:30:57;;;;;;;10.40;6.40;;;15.20;63.10;;;;;;5052253;28;46453;-62
2022/06/02 05:33:49;;;;;;;7.50;5.80;;;15.10;63.50;;;;;;5048680;28;45857;-63
2022/06/02 05:36:35;;;;;;;9.90;5.37;;;15.20;63.80;;;;;;5051246;28;46648;-63
2022/06/02 05:39:19;;;;;;;8.10;4.83;;;17.50;61.00;;;;;;5051953;28;46337;-63
2022/06/02 05:42:19;;;;;;;9.80;5.30;;;20.10;53.90;;;;;;5051995;28;46018;-62
2022/06/02 05:45:00;;;;;;;11.17;5.50;;;20.70;51.50;;;;;;5051338;28;46345;-61
2022/06/02 05:47:34;;;;;;;10.67;5.50;;;19.40;54.40;;;;;;5053334;28;46604;-61
2022/06/02 05:50:30;;;;;;;8.03;4.80;;;20.00;52.50;;;;;;5053116;28;46224;-62
2022/06/02 05:53:16;;;;;;;7.90;4.70;;;20.00;52.70;;;;;;5054240;28;46219;-60
2022/06/02 05:56:06;;;;;;;6.53;4.80;;;19.10;56.90;;;;;;5053874;28;46428;-63
2022/06/02 05:58:53;;;;;;;7.50;5.03;;;18.80;60.00;;;;;;5055757;28;46408;-61
2022/06/02 06:01:43;;;;;;;9.30;6.93;;;18.30;62.60;;;;;;5054604;28;46377;-61
2022/06/02 06:04:26;;;;;;;7.77;4.77;;;17.90;63.60;;;;;;5053951;28;46403;-61
2022/06/02 06:07:06;;;;;;;6.43;4.53;;;17.80;62.70;;;;;;5053194;28;45877;-62
2022/06/02 06:09:56;;;;;;;8.90;4.73;;;17.80;61.40;;;;;;5053583;28;46369;-61
2022/06/02 06:12:33;;;;;;;8.00;5.20;;;17.50;58.70;;;;;;5055648;28;46298;-62
2022/06/02 06:15:19;;;;;;;15.63;5.00;;;17.40;59.00;;;;;;5053030;28;46417;-61
2022/06/02 06:18:00;;;;;;;7.10;5.53;;;17.30;58.40;;;;;;5053083;28;46611;-61
2022/06/02 06:20:35;;;;;;;11.13;5.10;;;17.20;57.00;;;;;;5052241;28;47097;-63
2022/06/02 06:23:03;;;;;;;6.87;4.33;;;17.30;56.00;;;;;;5056713;28;46634;-61
2022/06/02 06:25:47;;;;;;;14.70;5.40;;;17.60;54.40;;;;;;5050656;28;46505;-61
2022/06/02 06:28:14;;;;;;;10.77;5.40;;;17.50;53.50;;;;;;5052955;28;46531;-61
2022/06/02 06:31:19;;;;;;;10.63;6.10;;;17.30;53.00;;;;;;5051988;28;46604;-61
2022/06/02 06:33:47;;;;;;;9.10;5.73;;;16.90;52.90;;;;;;5046532;28;46377;-62
2022/06/02 06:36:34;;;;;;;9.33;5.53;;;17.00;52.60;;;;;;5054468;28;46298;-62
2022/06/02 06:39:09;;;;;;;7.80;5.87;;;17.00;52.40;;;;;;5054886;28;46470;-61
2022/06/02 06:41:56;;;;;;;11.67;6.00;;;16.90;52.50;;;;;;5051940;28;47249;-62
2022/06/02 06:44:37;;;;;;;6.87;5.33;;;17.00;52.40;;;;;;5049776;28;46352;-61
2022/06/02 06:47:29;;;;;;;11.70;5.90;;;17.20;51.80;;;;;;5053652;28;45817;-61
2022/06/02 06:50:23;;;;;;;6.90;4.83;;;17.10;51.30;;;;;;5051784;28;46512;-61
2022/06/02 06:53:20;;;;;;;7.17;5.50;;;17.10;51.20;;;;;;5050696;28;47153;-62
2022/06/02 06:56:13;;;;;;;8.90;5.53;;;17.50;50.50;;;;;;5051397;28;46439;-62
2022/06/02 06:59:13;;;;;;;6.87;5.47;;;17.70;49.90;;;;;;5047955;28;46357;-62
2022/06/02 07:01:42;;;;;;;9.07;5.60;;;17.60;49.40;;;;;;5053480;28;46458;-62
2022/06/02 07:04:15;;;;;;;12.47;5.43;;;17.40;49.40;;;;;;5050085;28;46677;-61
2022/06/02 07:06:52;;;;;;;9.53;5.73;;;17.20;50.00;;;;;;5051184;28;46378;-62
2022/06/02 07:09:49;;;;;;;9.53;5.80;;;17.40;49.80;;;;;;5049511;28;46346;-61
2022/06/02 07:15:33;;;;;;;9.37;6.23;;;17.80;49.40;;;;;;5053409;28;46457;-62
2022/06/02 07:17:58;;;;;;;6.73;5.50;;;17.80;49.40;;;;;;5050465;28;46502;-62
2022/06/02 07:20:38;;;;;;;8.57;5.73;;;17.80;49.00;;;;;;5050184;28;46452;-61
2022/06/02 07:23:20;;;;;;;12.80;5.50;;;17.60;49.30;;;;;;5052062;28;45874;-62
2022/06/02 07:26:04;;;;;;;8.30;5.77;;;17.80;49.50;;;;;;5050014;28;46955;-62
2022/06/02 07:28:38;;;;;;;11.07;6.17;;;18.10;48.40;;;;;;5048325;28;45778;-61
2022/06/02 07:31:27;;;;;;;8.43;5.67;;;18.20;48.40;;;;;;5047937;28;46412;-61
2022/06/02 07:34:14;;;;;;;11.40;5.50;;;18.30;48.30;;;;;;5050224;28;46361;-62
2022/06/02 07:37:24;;;;;;;9.63;5.80;;;18.30;48.00;;;;;;5045976;28;46441;-61
2022/06/02 07:40:06;;;;;;;6.70;5.13;;;18.60;47.70;;;;;;5047018;28;46487;-63
2022/06/02 07:43:00;;;;;;;8.17;5.27;;;18.80;46.60;;;;;;5050495;28;46443;-63
2022/06/02 07:45:35;;;;;;;6.87;5.27;;;18.60;46.10;;;;;;5048291;28;46458;-62
2022/06/02 07:48:33;;;;;;;8.23;5.20;;;18.50;46.30;;;;;;5053158;28;46434;-63
2022/06/02 07:51:23;;;;;;;9.63;6.07;;;18.60;46.40;;;;;;5043364;28;46351;-62
2022/06/02 07:54:23;;;;;;;8.37;5.33;;;19.20;45.20;;;;;;5053062;28;46330;-62
2022/06/02 07:57:17;;;;;;;6.47;4.67;;;19.40;43.80;;;;;;5053491;28;46441;-62
2022/06/02 08:00:19;;;;;;;7.20;5.60;;;19.30;43.00;;;;;;5049673;28;47070;-61
2022/06/02 08:02:56;;;;;;;7.17;5.50;;;19.50;43.20;;;;;;5042499;28;46530;-62
2022/06/02 08:05:29;;;;;;;11.03;5.83;;;19.50;43.30;;;;;;5051573;28;45843;-60
2022/06/02 08:08:08;;;;;;;12.13;7.07;;;19.50;43.70;;;;;;5055022;28;46480;-61
2022/06/02 08:10:46;;;;;;;8.50;6.30;;;19.70;43.30;;;;;;5048484;28;46532;-62
2022/06/02 08:13:27;;;;;;;10.47;5.70;;;19.80;43.20;;;;;;5050141;28;46487;-61
2022/06/02 08:16:02;;;;;;;8.43;5.37;;;19.90;43.00;;;;;;5047220;28;46556;-62
2022/06/02 08:18:37;;;;;;;11.67;6.10;;;19.60;43.70;;;;;;5048192;28;46505;-61
2022/06/02 08:21:17;;;;;;;7.93;5.97;;;19.50;44.40;;;;;;5050182;28;47298;-60
2022/06/02 08:24:07;;;;;;;8.40;6.10;;;19.50;44.20;;;;;;5051677;28;46662;-62
2022/06/02 08:26:47;;;;;;;7.47;5.60;;;19.80;43.30;;;;;;5046153;28;46453;-62
2022/06/02 08:29:48;;;;;;;8.70;6.13;;;19.70;43.70;;;;;;5050176;28;46547;-60
2022/06/02 08:32:16;;;;;;;11.57;6.17;;;19.70;43.30;;;;;;5054204;28;46814;-63
2022/06/02 08:35:12;;;;;;;11.70;5.63;;;20.00;43.10;;;;;;5050640;28;46418;-62
2022/06/02 08:37:46;;;;;;;9.27;5.40;;;20.00;42.60;;;;;;5051957;28;46403;-62
2022/06/02 08:40:39;;;;;;;9.13;5.60;;;20.40;42.70;;;;;;5048021;28;46631;-62
2022/06/02 08:43:23;;;;;;;7.00;4.93;;;20.50;41.90;;;;;;5048101;28;47067;-61
2022/06/02 08:46:21;;;;;;;8.77;5.70;;;20.60;41.90;;;;;;5049142;28;46739;-62
2022/06/02 08:49:10;;;;;;;6.57;5.13;;;20.40;41.80;;;;;;5051082;28;46676;-61
2022/06/02 08:51:41;;;;;;;7.57;5.00;;;20.20;41.70;;;;;;5046097;28;46663;-62
2022/06/02 08:54:10;;;;;;;9.93;5.07;;;20.20;41.90;;;;;;5052305;28;46521;-63
2022/06/02 08:57:15;;;;;;;7.10;4.60;;;20.50;41.20;;;;;;5053836;28;46405;-62
2022/06/02 08:59:41;;;;;;;7.63;4.57;;;20.60;40.00;;;;;;5051822;28;46424;-62
2022/06/02 09:02:41;;;;;;;7.63;4.90;;;20.50;39.80;;;;;;5051507;28;46378;-62
2022/06/02 09:05:42;;;;;;;8.30;5.10;;;20.50;40.00;;;;;;5051601;28;47148;-62
2022/06/02 09:08:35;;;;;;;9.40;4.50;;;20.50;39.90;;;;;;5051218;28;46533;-62
2022/06/02 09:11:19;;;;;;;8.33;4.20;;;20.80;39.70;;;;;;5052382;28;46361;-62
2022/06/02 09:13:53;;;;;;;9.23;4.57;;;21.20;38.70;;;;;;5052010;28;46447;-61
2022/06/02 09:16:48;;;;;;;8.53;4.50;;;21.20;37.20;;;;;;5053649;28;46364;-61
2022/06/02 09:19:14;;;;;;;7.40;4.33;;;21.20;37.30;;;;;;5041271;28;46506;-61
2022/06/02 09:22:35;;;;;;;10.80;4.57;;;21.50;36.80;;;;;;5053852;28;46343;-63
2022/06/02 09:25:21;;;;;;;10.40;5.07;;;21.80;35.70;;;;;;5030125;28;45926;-63
2022/06/02 09:28:10;;;;;;;6.80;4.77;;;21.80;35.70;;;;;;5052380;28;46123;-63
2022/06/02 09:31:26;;;;;;;6.10;4.67;;;21.90;35.80;;;;;;5052737;28;46707;-62
2022/06/02 09:34:03;;;;;;;7.90;4.80;;;22.30;36.50;;;;;;5046635;28;46477;-59
2022/06/02 09:36:54;;;;;;;10.33;4.83;;;21.90;35.80;;;;;;5055478;28;46362;-61
2022/06/02 09:39:39;;;;;;;8.60;4.70;;;21.60;35.50;;;;;;5054430;28;45930;-61
2022/06/02 09:42:05;;;;;;;8.57;4.70;;;22.20;34.70;;;;;;5054752;28;46425;-61
2022/06/02 09:44:49;;;;;;;8.07;4.90;;;22.50;34.20;;;;;;5051834;28;46381;-62
2022/06/02 09:47:57;;;;;;;6.23;4.20;;;22.70;33.10;;;;;;5059453;28;45834;-61
2022/06/02 09:50:41;;;;;;;13.90;5.10;;;22.80;31.70;;;;;;5052632;28;46299;-62
2022/06/02 09:53:37;;;;;;;8.13;5.00;;;22.40;32.90;;;;;;5053314;28;46714;-61
2022/06/02 09:56:27;;;;;;;10.00;4.43;;;22.00;33.60;;;;;;5053037;28;46432;-62
2022/06/02 09:59:14;;;;;;;7.90;4.40;;;22.00;34.10;;;;;;5052259;28;46251;-62
2022/06/02 10:02:11;;;;;;;7.90;4.80;;;22.00;33.70;;;;;;5053027;28;46059;-61
2022/06/02 10:04:55;;;;;;;6.37;4.17;;;22.10;33.10;;;;;;5054137;28;47073;-61
2022/06/02 10:07:36;;;;;;;8.00;3.97;;;21.90;33.80;;;;;;5049179;28;46511;-63
2022/06/02 10:10:52;;;;;;;7.80;4.70;;;22.00;34.00;;;;;;5051544;28;46352;-62
2022/06/02 10:13:36;;;;;;;6.40;4.40;;;22.20;33.30;;;;;;5029594;28;46423;-61
2022/06/02 10:16:35;;;;;;;9.60;4.93;;;22.10;33.70;;;;;;5049417;28;46366;-61
2022/06/02 10:19:26;;;;;;;10.33;4.57;;;22.20;32.70;;;;;;5053687;28;46429;-60
2022/06/02 10:22:23;;;;;;;6.63;4.40;;;22.40;32.70;;;;;;5051921;28;46381;-60
2022/06/02 10:25:04;;;;;;;7.00;4.63;;;22.50;32.90;;;;;;5048154;28;46316;-61
2022/06/02 10:28:16;;;;;;;10.30;4.70;;;22.50;32.60;;;;;;5051662;28;46393;-60
2022/06/02 10:30:44;;;;;;;7.27;4.70;;;22.30;32.80;;;;;;5052713;28;46456;-62
2022/06/02 10:33:52;;;;;;;9.63;5.07;;;22.50;32.10;;;;;;5050216;28;46789;-61
2022/06/02 10:36:39;;;;;;;9.33;5.13;;;22.10;32.40;;;;;;5052536;28;47344;-62
2022/06/02 10:39:32;;;;;;;8.10;4.83;;;22.30;32.60;;;;;;5050266;28;46361;-61
2022/06/02 10:42:12;;;;;;;6.03;4.60;;;22.60;33.30;;;;;;5050787;28;46280;-61
2022/06/02 10:45:02;;;;;;;8.57;4.83;;;22.80;31.00;;;;;;5049120;28;46437;-62
2022/06/02 10:48:14;;;;;;;7.07;4.30;;;22.80;30.60;;;;;;5049848;28;46379;-62
2022/06/02 10:51:16;;;;;;;7.73;4.57;;;22.70;30.00;;;;;;5050659;28;46375;-60
2022/06/02 10:54:13;;;;;;;6.70;4.60;;;23.00;29.70;;;;;;5048063;28;46491;-61
2022/06/02 10:57:00;;;;;;;6.10;4.23;;;23.40;29.70;;;;;;5051829;28;46418;-61
2022/06/02 10:59:58;;;;;;;6.77;4.30;;;23.80;29.20;;;;;;5049585;28;46972;-62
2022/06/02 11:02:43;;;;;;;7.00;4.80;;;23.90;29.00;;;;;;5050434;28;46425;-62
2022/06/02 11:05:33;;;;;;;7.07;4.30;;;24.00;28.50;;;;;;5049189;28;46770;-62
2022/06/02 11:08:27;;;;;;;8.23;4.50;;;23.40;28.30;;;;;;5053027;28;46389;-61
2022/06/02 11:11:22;;;;;;;12.50;4.00;;;23.00;29.10;;;;;;5050387;28;46099;-61
2022/06/02 11:14:27;;;;;;;8.27;4.70;;;22.80;30.00;;;;;;5054545;28;46435;-61
2022/06/02 11:17:04;;;;;;;8.30;3.77;;;22.90;30.00;;;;;;5050853;28;45917;-61
2022/06/02 11:19:47;;;;;;;6.97;3.90;;;23.00;29.30;;;;;;5053342;28;46285;-62
2022/06/02 11:22:32;;;;;;;8.53;4.50;;;23.20;28.70;;;;;;5049396;28;46484;-62
2022/06/02 11:25:21;;;;;;;5.80;3.33;;;23.10;29.10;;;;;;5055421;28;46515;-62
2022/06/02 11:28:24;;;;;;;5.50;3.00;;;23.50;28.40;;;;;;5047798;28;45833;-61
2022/06/02 11:31:01;;;;;;;5.13;2.87;;;23.40;27.20;;;;;;5053202;28;46356;-60
2022/06/02 11:33:54;;;;;;;6.53;3.10;;;23.40;27.60;;;;;;5050098;28;46373;-60
2022/06/02 11:36:38;;;;;;;5.60;3.33;;;23.70;26.90;;;;;;5050983;28;46295;-62
2022/06/02 11:39:31;;;;;;;7.50;3.17;;;23.70;27.10;;;;;;5050115;28;46403;-62
2022/06/02 11:42:31;;;;;;;6.13;3.33;;;23.90;26.90;;;;;;5053158;28;46574;-61
2022/06/02 11:45:18;;;;;;;8.07;3.13;;;24.10;26.30;;;;;;5052948;28;46430;-62
2022/06/02 11:48:16;;;;;;;7.73;2.97;;;24.20;25.40;;;;;;5053954;28;46390;-61
2022/06/02 11:50:59;;;;;;;20.20;3.23;;;24.60;25.70;;;;;;5046427;28;46419;-60
2022/06/02 11:53:59;;;;;;;5.37;2.63;;;24.80;24.80;;;;;;5048324;28;46444;-62
2022/06/02 11:56:57;;;;;;;7.60;3.37;;;24.60;24.90;;;;;;5050368;28;46473;-61
2022/06/02 11:59:34;;;;;;;4.90;3.40;;;24.50;24.60;;;;;;5037750;28;46471;-60
2022/06/02 12:02:11;;;;;;;6.50;2.83;;;24.50;24.40;;;;;;5050232;28;46389;-61
2022/06/02 12:05:01;;;;;;;8.57;2.60;;;24.70;24.30;;;;;;5051735;28;46419;-61
2022/06/02 12:07:46;;;;;;;5.07;2.40;;;25.00;24.20;;;;;;5047760;28;46429;-61
2022/06/02 12:10:27;;;;;;;7.07;3.10;;;25.50;23.20;;;;;;5051773;28;46365;-62
2022/06/02 12:13:04;;;;;;;9.50;2.80;;;26.30;21.70;;;;;;5048411;28;45890;-59
2022/06/02 12:15:51;;;;;;;5.50;3.13;;;26.20;22.10;;;;;;5047341;28;46425;-60
2022/06/02 12:18:26;;;;;;;5.33;3.03;;;25.90;22.50;;;;;;5051262;28;46357;-60
2022/06/02 12:21:22;;;;;;;4.40;3.03;;;25.00;22.80;;;;;;5050101;28;46465;-62
2022/06/02 12:24:17;;;;;;;5.33;3.23;;;24.50;24.20;;;;;;5052186;28;46560;-60
2022/06/02 12:26:59;;;;;;;4.47;2.77;;;24.40;25.20;;;;;;5049511;28;46417;-62
2022/06/02 12:30:02;;;;;;;6.60;2.90;;;24.40;24.60;;;;;;5049571;28;46722;-62
2022/06/02 12:32:58;;;;;;;5.03;2.50;;;23.80;24.50;;;;;;5050505;28;46365;-63
2022/06/02 12:35:36;;;;;;;5.30;2.60;;;23.50;24.90;;;;;;5058722;28;46421;-61
2022/06/02 12:38:08;;;;;;;4.70;2.73;;;23.60;25.00;;;;;;5051125;28;46449;-62
2022/06/02 12:40:45;;;;;;;5.40;2.60;;;23.60;25.00;;;;;;5048207;28;47207;-63
2022/06/02 12:43:25;;;;;;;6.67;2.77;;;23.60;25.00;;;;;;5045591;28;46292;-61
2022/06/02 12:46:10;;;;;;;4.60;2.50;;;23.70;25.00;;;;;;5048582;28;46399;-61
2022/06/02 12:48:54;;;;;;;6.43;2.87;;;23.60;25.00;;;;;;5048368;28;46433;-61
2022/06/02 12:51:28;;;;;;;7.87;2.73;;;23.40;24.90;;;;;;5048930;28;47386;-62
2022/06/02 12:54:13;;;;;;;4.13;2.60;;;23.60;25.00;;;;;;5049127;28;46303;-60
2022/06/02 12:57:04;;;;;;;5.00;2.63;;;23.90;25.20;;;;;;5050606;28;46304;-62
2022/06/02 12:59:45;;;;;;;7.93;3.40;;;24.40;23.80;;;;;;5053879;28;46383;-62
2022/06/02 13:02:39;;;;;;;5.40;2.73;;;24.60;22.90;;;;;;5049209;28;47585;-62
2022/06/02 13:05:32;;;;;;;5.37;2.50;;;24.90;22.60;;;;;;5049911;28;46967;-61
2022/06/02 13:08:20;;;;;;;5.80;2.50;;;25.00;22.60;;;;;;5047699;28;46269;-61
2022/06/02 13:10:51;;;;;;;5.67;2.60;;;24.60;22.80;;;;;;5047962;28;46774;-61
2022/06/02 13:13:35;;;;;;;5.90;2.20;;;24.50;23.40;;;;;;5047858;28;47137;-61
2022/06/02 13:16:22;;;;;;;5.50;2.43;;;24.60;23.30;;;;;;5046807;28;46597;-61
2022/06/02 13:18:54;;;;;;;5.70;2.43;;;24.80;24.20;;;;;;5048386;28;46457;-61
2022/06/02 13:21:43;;;;;;;5.40;2.33;;;24.80;22.90;;;;;;5046661;28;46795;-61
2022/06/02 13:24:32;;;;;;;6.17;2.40;;;24.90;22.70;;;;;;5049444;28;46342;-62
2022/06/02 13:27:20;;;;;;;3.90;2.40;;;25.10;22.90;;;;;;5046299;28;46899;-61
2022/06/02 13:30:16;;;;;;;4.03;2.07;;;25.00;22.60;;;;;;5044785;28;46368;-60
2022/06/02 13:32:50;;;;;;;5.00;2.20;;;25.10;22.40;;;;;;5045571;28;46306;-60
2022/06/02 13:35:29;;;;;;;3.43;2.00;;;25.30;21.70;;;;;;5047237;28;46417;-61
2022/06/02 13:38:32;;;;;;;4.60;1.90;;;25.30;21.30;;;;;;5046475;28;46791;-62
2022/06/02 13:41:28;;;;;;;3.90;1.90;;;25.40;21.40;;;;;;5047847;28;46647;-62
2022/06/02 13:44:08;;;;;;;3.67;2.10;;;25.30;21.40;;;;;;5046815;28;46367;-60
2022/06/02 13:46:40;;;;;;;4.57;2.00;;;25.40;21.40;;;;;;5043895;28;47576;-62
2022/06/02 13:49:34;;;;;;;5.50;2.47;;;25.20;20.80;;;;;;5048895;28;46546;-62
2022/06/02 13:52:34;;;;;;;3.83;1.90;;;25.30;20.70;;;;;;5042589;28;46357;-61
2022/06/02 13:58:52;;;;;;;5.13;2.50;;;25.40;21.10;;;;;;5052999;28;46376;-62
2022/06/02 14:01:32;;;;;;;7.20;2.77;;;25.50;21.40;;;;;;5055196;28;46488;-63
2022/06/02 14:04:06;;;;;;;8.90;2.60;;;25.30;21.50;;;;;;5053326;28;46247;-61
2022/06/02 14:06:43;;;;;;;7.10;2.60;;;25.00;21.70;;;;;;5053324;28;45830;-61
2022/06/02 14:09:17;;;;;;;4.60;2.20;;;24.70;22.00;;;;;;5050022;28;49276;-61
2022/06/02 14:11:57;;;;;;;5.57;2.63;;;24.70;22.10;;;;;;5051343;28;46338;-60
2022/06/02 14:15:03;;;;;;;5.77;2.50;;;24.70;22.20;;;;;;5055670;28;46270;-61
2022/06/02 14:17:56;;;;;;;6.30;2.40;;;24.80;22.00;;;;;;5053264;28;46431;-61
2022/06/02 14:20:43;;;;;;;7.47;2.97;;;24.50;22.30;;;;;;5051209;28;46488;-61
2022/06/02 14:23:21;;;;;;;5.53;2.57;;;24.30;23.00;;;;;;5054940;28;46413;-62
2022/06/02 14:26:31;;;;;;;3.70;2.30;;;24.30;23.00;;;;;;5050760;28;46523;-61
2022/06/02 14:29:25;;;;;;;5.30;2.50;;;24.00;23.00;;;;;;5040769;28;46431;-60
2022/06/02 14:32:11;;;;;;;8.70;2.50;;;23.80;23.80;;;;;;5052536;28;47339;-61
2022/06/02 14:34:53;;;;;;;8.03;2.50;;;23.70;25.10;;;;;;5052742;28;45956;-63